Time;durP1;ratioP1;P1;durP2;ratioP2;P2;SDS_P1;SDS_P2;PMS_P1;PMS_P2;Temp;Humidity;BMP_temperature;BMP_pressure;BME280_temperature;BME280_humidity;BME280_pressure;Samples;Min_cycle;Max_cycle;Signal;HPM_P1;HPM_P2
2022/04/01 00:00:19;;;;;;;1.17;1.02;;;;;;;1.24;78.54;100385.22;10542788;27;20118;-82
2022/04/01 00:05:21;;;;;;;0.17;0.10;;;;;;;1.40;78.00;100388.59;10523038;28;20123;-83
2022/04/01 00:10:23;;;;;;;0.35;0.35;;;;;;;1.33;78.28;100401.75;10529922;28;20068;-82
2022/04/01 00:15:24;;;;;;;0.20;0.20;;;;;;;1.38;78.33;100397.78;10524607;28;20119;-83
2022/04/01 00:20:27;;;;;;;1.45;0.85;;;;;;;1.20;79.17;100403.63;10531945;28;20052;-82
2022/04/01 00:25:29;;;;;;;0.10;0.10;;;;;;;1.29;79.25;100402.38;10519102;28;20074;-82
2022/04/01 00:30:33;;;;;;;0.63;0.45;;;;;;;1.07;79.97;100406.25;10535587;28;20418;-82
2022/04/01 00:35:36;;;;;;;0.73;0.60;;;;;;;1.09;80.49;100414.81;10551964;27;20048;-83
2022/04/01 00:40:39;;;;;;;0.80;0.65;;;;;;;1.04;80.69;100421.31;10525124;28;20121;-82
2022/04/01 00:45:40;;;;;;;0.50;0.50;;;;;;;0.95;80.95;100420.00;10520324;28;20036;-82
2022/04/01 00:50:42;;;;;;;1.02;0.65;;;;;;;0.92;81.20;100424.91;10525946;28;20444;-81
2022/04/01 00:55:46;;;;;;;2.05;1.33;;;;;;;0.87;80.66;100430.50;10530366;28;20126;-83
2022/04/01 01:00:49;;;;;;;2.10;0.88;;;;;;;0.95;81.06;100435.22;10518235;28;20043;-82
2022/04/01 01:05:51;;;;;;;0.20;0.20;;;;;;;0.93;81.41;100433.38;10521198;28;20036;-83
2022/04/01 01:10:53;;;;;;;0.47;0.47;;;;;;;0.97;81.77;100442.03;10517076;28;20487;-83
2022/04/01 01:15:54;;;;;;;0.43;0.43;;;;;;;0.95;81.55;100440.28;10491624;28;20048;-82
2022/04/01 01:20:56;;;;;;;1.65;1.13;;;;;;;0.86;81.56;100444.81;10512717;28;20073;-82
2022/04/01 01:25:58;;;;;;;0.25;0.25;;;;;;;0.95;80.61;100440.28;10524511;28;20040;-83
2022/04/01 01:30:59;;;;;;;0.40;0.40;;;;;;;0.84;81.36;100446.41;10525632;28;20067;-82
2022/04/01 01:36:01;;;;;;;0.17;0.17;;;;;;;0.84;82.19;100453.13;10513207;28;20131;-81
2022/04/01 01:41:03;;;;;;;0.35;0.22;;;;;;;0.84;81.68;100446.41;10543638;28;20517;-81
2022/04/01 01:46:07;;;;;;;0.93;0.88;;;;;;;0.82;81.67;100442.06;10538251;28;20040;-83
2022/04/01 01:56:31;;;;;;;1.13;0.77;;;;;;;0.82;81.52;100463.19;10527457;28;20055;-81
2022/04/01 02:01:36;;;;;;;2.08;1.48;;;;;;;0.74;81.98;100459.34;10510161;28;20089;-82
2022/04/01 02:06:38;;;;;;;1.70;1.25;;;;;;;0.70;81.95;100458.28;10528074;28;20044;-81
2022/04/01 02:11:40;;;;;;;1.45;0.77;;;;;;;0.72;81.78;100460.91;10561775;27;20046;-83
2022/04/01 02:16:44;;;;;;;1.92;1.77;;;;;;;0.59;82.19;100464.41;10534797;28;20028;-82
2022/04/01 02:21:55;;;;;;;0.50;0.50;;;;;;;0.77;82.00;100472.22;10539283;28;20442;-83
2022/04/01 02:26:57;;;;;;;2.35;1.65;;;;;;;0.67;82.24;100472.44;10528388;28;20043;-82
2022/04/01 02:32:00;;;;;;;0.30;0.30;;;;;;;0.78;82.07;100476.50;10530323;28;20097;-82
2022/04/01 02:37:28;;;;;;;1.25;0.80;;;;;;;0.75;82.31;100477.16;10516474;28;20051;-83
2022/04/01 02:42:33;;;;;;;1.00;0.68;;;;;;;0.75;81.85;100483.91;10521656;28;20055;-82
2022/04/01 02:47:34;;;;;;;2.85;1.48;;;;;;;0.65;81.93;100497.72;10541007;28;20048;-82
2022/04/01 02:52:36;;;;;;;1.52;1.10;;;;;;;0.70;81.76;100495.47;10528068;28;20406;-83
2022/04/01 02:57:38;;;;;;;0.10;0.10;;;;;;;0.80;81.05;100502.81;10541706;28;20040;-84
2022/04/01 03:02:40;;;;;;;3.40;1.70;;;;;;;0.61;80.95;100503.38;10520812;28;20075;-83
2022/04/01 03:07:43;;;;;;;1.70;1.10;;;;;;;0.62;80.98;100511.09;10521568;28;20044;-82
2022/04/01 03:12:44;;;;;;;1.20;0.98;;;;;;;0.74;80.65;100510.06;10541942;28;20048;-80
2022/04/01 03:18:12;;;;;;;1.15;0.90;;;;;;;0.58;80.56;100509.13;10544879;27;20442;-84
2022/04/01 03:23:16;;;;;;;2.58;1.48;;;;;;;0.68;80.61;100529.97;10518980;28;20517;-84
2022/04/01 03:28:18;;;;;;;2.63;0.93;;;;;;;0.75;80.14;100532.97;10522065;28;20052;-82
2022/04/01 03:33:25;;;;;;;0.40;0.40;;;;;;;0.81;79.60;100537.53;10525470;28;20040;-81
2022/04/01 03:38:27;;;;;;;2.97;2.00;;;;;;;0.67;80.05;100545.97;10521169;28;20512;-83
2022/04/01 03:43:36;;;;;;;0.85;0.68;;;;;;;0.77;79.63;100555.91;10517460;28;20040;-82
2022/04/01 03:48:45;;;;;;;3.55;2.38;;;;;;;0.60;79.20;100558.28;10517067;28;20043;-82
2022/04/01 03:53:55;;;;;;;;;;;;;;;0.82;78.80;100558.72;10540986;28;20043;-82
2022/04/01 03:59:05;;;;;;;3.30;2.20;;;;;;;0.57;79.09;100560.63;10521802;28;19927;-83
2022/04/01 04:04:43;;;;;;;1.23;0.95;;;;;;;0.72;78.77;100578.44;10500272;28;20083;-83
2022/04/01 04:09:45;;;;;;;1.63;1.33;;;;;;;0.68;78.72;100581.56;10518368;28;20048;-81
2022/04/01 04:14:52;;;;;;;0.93;0.73;;;;;;;0.71;78.19;100589.34;10529925;28;20044;-83
2022/04/01 04:20:06;;;;;;;2.00;1.42;;;;;;;0.66;78.13;100597.47;10529699;28;20036;-81
2022/04/01 04:25:14;;;;;;;1.23;0.82;;;;;;;0.70;77.67;100594.34;10522838;28;20080;-80
2022/04/01 04:30:18;;;;;;;2.92;1.75;;;;;;;0.60;77.64;100590.34;10505620;28;20075;-82
2022/04/01 04:35:29;;;;;;;1.33;0.82;;;;;;;0.70;77.77;100609.56;10524194;28;20146;-81
2022/04/01 04:40:32;;;;;;;3.03;1.65;;;;;;;0.74;77.95;100611.47;10512590;28;20105;-81
2022/04/01 04:45:49;;;;;;;2.38;1.95;;;;;;;0.59;78.04;100612.31;10535941;28;20395;-81
2022/04/01 04:50:52;;;;;;;4.63;2.03;;;;;;;0.56;77.50;100627.31;10530690;28;20044;-81
2022/04/01 04:55:59;;;;;;;0.93;0.85;;;;;;;0.59;77.53;100630.06;10513033;28;20072;-83
2022/04/01 05:01:13;;;;;;;0.05;0.05;;;;;;;0.62;77.63;100635.31;10521062;28;20040;-82
2022/04/01 05:06:22;;;;;;;1.08;0.98;;;;;;;0.58;78.07;100640.97;10541130;28;20091;-82
2022/04/01 05:12:04;;;;;;;;;;;;;;;0.57;77.73;100654.41;10534156;28;20491;-83
2022/04/01 05:17:37;;;;;;;3.97;2.20;;;;;;;0.40;77.00;100665.19;10535092;28;19923;-83
2022/04/01 05:22:58;;;;;;;1.77;1.20;;;;;;;0.49;77.12;100670.81;10504105;28;20071;-82
2022/04/01 05:28:02;;;;;;;2.00;1.30;;;;;;;0.41;77.10;100670.34;10527034;28;20044;-82
2022/04/01 05:33:29;;;;;;;;;;;;;;;0.53;77.22;100682.91;10516547;28;20083;-81
2022/04/01 05:38:34;;;;;;;0.25;0.25;;;;;;;0.51;77.10;100688.66;10515753;28;20375;-81
2022/04/01 05:43:40;;;;;;;4.25;1.85;;;;;;;0.44;76.99;100692.47;10532933;28;20032;-81
2022/04/01 05:48:56;;;;;;;0.40;0.40;;;;;;;0.57;76.42;100707.66;10510618;28;20513;-81
2022/04/01 05:53:59;;;;;;;1.48;0.63;;;;;;;0.51;77.18;100703.88;10522371;28;20052;-81
2022/04/01 05:59:00;;;;;;;1.60;1.02;;;;;;;0.40;76.80;100701.53;10522960;28;20064;-83
2022/04/01 06:04:16;;;;;;;2.28;1.23;;;;;;;0.51;76.31;100719.94;10514597;28;20101;-82
2022/04/01 06:09:59;;;;;;;1.58;1.08;;;;;;;0.46;75.94;100721.34;10530253;28;20055;-84
2022/04/01 06:15:36;;;;;;;1.70;1.20;;;;;;;0.58;76.08;100726.31;10531625;28;20088;-82
2022/04/01 06:21:15;;;;;;;1.77;1.55;;;;;;;0.59;75.95;100728.94;10527098;28;20044;-80
2022/04/01 06:26:18;;;;;;;1.00;0.70;;;;;;;0.82;76.03;100741.31;10506842;28;20068;-81
2022/04/01 06:31:22;;;;;;;0.52;0.43;;;;;;;0.75;75.67;100750.19;10533125;28;20047;-81
2022/04/01 06:36:37;;;;;;;1.20;1.02;;;;;;;0.70;75.55;100756.63;10529059;28;20142;-78
2022/04/01 06:41:46;;;;;;;0.30;0.30;;;;;;;0.83;76.01;100764.22;10525359;28;20073;-80
2022/04/01 06:47:09;;;;;;;1.35;0.75;;;;;;;0.87;76.34;100765.28;10529675;28;20044;-77
2022/04/01 06:52:14;;;;;;;0.10;0.10;;;;;;;0.87;75.86;100780.50;10525699;28;20052;-76
2022/04/01 06:57:35;;;;;;;0.45;0.20;;;;;;;0.75;76.02;100780.63;10527571;28;20689;-81
2022/04/01 07:02:52;;;;;;;2.95;0.55;;;;;;;0.79;76.38;100785.09;10516945;28;20055;-82
2022/04/01 07:07:54;;;;;;;1.75;0.80;;;;;;;0.71;76.54;100786.28;10511761;28;20040;-83
2022/04/01 07:12:55;;;;;;;0.32;0.30;;;;;;;0.89;76.11;100794.19;10536370;28;20119;-82
2022/04/01 07:17:57;;;;;;;1.00;0.80;;;;;;;0.77;75.73;100799.34;10538087;28;20071;-82
2022/04/01 07:22:59;;;;;;;0.38;0.30;;;;;;;1.04;75.15;100804.41;10511948;28;20063;-81
2022/04/01 07:28:00;;;;;;;1.42;1.00;;;;;;;0.95;74.59;100812.31;10518824;28;20069;-82
2022/04/01 07:33:03;;;;;;;0.85;0.73;;;;;;;1.02;73.92;100816.09;10523666;28;20055;-83
2022/04/01 07:38:05;;;;;;;0.75;0.45;;;;;;;1.21;73.12;100818.13;10536144;28;20106;-84
2022/04/01 07:43:06;;;;;;;0.77;0.60;;;;;;;1.20;71.54;100824.88;10532165;28;20082;-82
2022/04/01 07:48:09;;;;;;;1.13;0.70;;;;;;;1.33;72.01;100833.25;10526049;28;20036;-83
2022/04/01 07:53:11;;;;;;;0.65;0.20;;;;;;;1.46;70.66;100840.84;10517474;28;20102;-82
2022/04/01 07:58:12;;;;;;;0.52;0.52;;;;;;;1.61;70.62;100845.09;10518568;28;20110;-83
2022/04/01 08:03:26;;;;;;;0.30;0.30;;;;;;;1.69;70.97;100849.88;10512572;28;20118;-83
2022/04/01 08:08:28;;;;;;;1.50;1.00;;;;;;;1.50;69.55;100850.41;10499378;28;20082;-85
2022/04/01 08:13:30;;;;;;;0.10;0.10;;;;;;;1.55;69.30;100851.56;10533560;28;20595;-83
2022/04/01 08:18:31;;;;;;;3.33;0.82;;;;;;;1.58;68.40;100861.91;10514976;28;20423;-83
2022/04/01 08:23:35;;;;;;;0.75;0.40;;;;;;;1.93;68.88;100853.78;10497902;28;20044;-83
2022/04/01 08:28:37;;;;;;;0.17;0.17;;;;;;;1.88;68.10;100866.22;10514624;28;20093;-83
2022/04/01 08:33:39;;;;;;;2.35;1.40;;;;;;;1.78;67.54;100880.03;10514108;28;20046;-84
2022/04/01 08:38:41;;;;;;;1.55;0.95;;;;;;;1.89;67.94;100878.13;10514476;28;20345;-82
2022/04/01 08:43:45;;;;;;;0.30;0.30;;;;;;;2.00;68.35;100881.31;10532212;28;20044;-84
2022/04/01 08:48:48;;;;;;;1.15;0.75;;;;;;;2.14;67.20;100885.56;10531545;28;20056;-86
2022/04/01 08:53:49;;;;;;;1.02;0.63;;;;;;;2.15;67.68;100892.41;10521374;28;20052;-79
2022/04/01 09:05:52;;;;;;;4.20;1.50;;;;;;;2.21;67.27;100902.06;10541665;28;20036;-79
2022/04/01 09:11:06;;;;;;;0.57;0.45;;;;;;;2.71;68.17;100916.00;10539356;28;20044;-79
2022/04/01 09:16:08;;;;;;;0.85;0.60;;;;;;;2.62;66.35;100920.56;10541130;28;20064;-80
2022/04/01 09:21:13;;;;;;;1.45;1.30;;;;;;;2.76;67.84;100914.59;10540042;28;20127;-80
2022/04/01 09:26:21;;;;;;;1.25;0.80;;;;;;;2.65;66.73;100925.81;10540776;28;20043;-80
2022/04/01 09:31:25;;;;;;;0.32;0.28;;;;;;;2.93;66.11;100932.50;10541845;28;20047;-81
2022/04/01 09:36:42;;;;;;;0.82;0.70;;;;;;;3.15;66.20;100935.50;10540756;28;20078;-80
2022/04/01 09:41:49;;;;;;;1.60;1.20;;;;;;;2.82;65.64;100945.50;10540549;28;20053;-80
2022/04/01 09:47:03;;;;;;;2.28;1.30;;;;;;;2.50;64.98;100949.56;10538969;28;20048;-78
2022/04/01 09:52:11;;;;;;;0.93;0.80;;;;;;;3.01;65.42;100962.69;10539825;28;20048;-80
2022/04/01 09:57:17;;;;;;;0.68;0.32;;;;;;;3.19;64.99;100956.91;10521878;28;20091;-80
2022/04/01 10:02:20;;;;;;;2.10;1.02;;;;;;;3.29;63.70;100948.13;10538705;28;20502;-79
2022/04/01 10:07:23;;;;;;;0.95;0.40;;;;;;;3.31;63.03;100946.53;10526362;28;20040;-79
2022/04/01 10:12:27;;;;;;;3.55;1.75;;;;;;;3.02;63.95;100963.56;10545796;28;20068;-81
2022/04/01 10:17:30;;;;;;;2.65;1.20;;;;;;;2.99;62.73;100963.41;10546059;28;20143;-79
2022/04/01 10:22:32;;;;;;;4.28;1.40;;;;;;;3.14;63.50;100963.38;10546423;28;20430;-77
2022/04/01 10:27:51;;;;;;;1.70;1.05;;;;;;;3.05;61.95;100961.19;10545776;28;20040;-78
2022/04/01 10:32:53;;;;;;;1.92;1.10;;;;;;;3.16;62.67;100965.22;10546911;28;20173;-77
2022/04/01 10:38:15;;;;;;;1.98;1.23;;;;;;;3.32;62.42;100968.63;10533719;28;20540;-82
2022/04/01 10:43:22;;;;;;;1.95;1.00;;;;;;;3.45;61.93;100970.22;10513095;28;20054;-81
2022/04/01 10:53:46;;;;;;;1.93;0.87;;;;;;;3.85;61.19;100979.16;10534703;28;20124;-82
2022/04/01 10:59:04;;;;;;;0.90;0.82;;;;;;;3.76;61.15;100988.06;10532833;28;20302;-81
2022/04/01 11:04:08;;;;;;;0.38;0.38;;;;;;;3.43;61.55;100990.50;10515629;28;20052;-80
2022/04/01 11:09:36;;;;;;;2.15;1.08;;;;;;;3.05;62.10;100989.22;10515344;28;20151;-81
2022/04/01 11:15:00;;;;;;;3.15;1.10;;;;;;;3.27;62.50;101006.59;10533993;28;20229;-82
2022/04/01 11:20:12;;;;;;;5.80;1.90;;;;;;;3.21;61.10;101010.47;10531933;28;20127;-81
2022/04/01 11:25:31;;;;;;;3.65;1.90;;;;;;;2.93;62.32;101019.03;10546441;28;20132;-82
2022/04/01 11:30:35;;;;;;;1.85;1.08;;;;;;;3.08;63.22;101025.03;10533547;28;20051;-81
2022/04/01 11:35:45;;;;;;;3.40;0.70;;;;;;;3.30;63.90;101036.47;10536476;28;20535;-81
2022/04/01 11:40:50;;;;;;;1.48;1.05;;;;;;;2.95;67.38;101048.88;10535382;28;20149;-82
2022/04/01 11:45:57;;;;;;;2.13;1.52;;;;;;;2.65;66.79;101043.72;10532129;28;20399;-82
2022/04/01 11:51:28;;;;;;;0.70;0.65;;;;;;;2.82;67.30;101056.59;10513391;28;20425;-81
2022/04/01 11:56:31;;;;;;;2.95;1.95;;;;;;;2.62;68.92;101058.78;10516430;28;20444;-81
2022/04/01 12:01:35;;;;;;;0.57;0.57;;;;;;;2.73;69.41;101067.06;10520909;28;20135;-81
2022/04/01 12:12:35;;;;;;;0.65;0.65;;;;;;;2.72;70.37;101075.47;10434477;28;20048;-81
2022/04/01 12:17:56;;;;;;;1.50;1.40;;;;;;;2.56;72.12;101077.91;10514276;28;20568;-83
2022/04/01 12:22:59;;;;;;;;;;;;;;;3.36;72.45;101058.81;10539451;28;20040;-77
2022/04/01 12:28:04;;;;;;;0.40;0.40;;;;;;;3.17;72.03;101060.31;10544150;28;20006;-76
2022/04/01 12:33:14;;;;;;;2.90;1.20;;;;;;;3.23;72.90;101065.78;10540982;28;20465;-77
2022/04/01 12:38:17;;;;;;;2.92;1.70;;;;;;;2.95;71.17;101059.06;10539314;28;20083;-77
2022/04/01 12:43:45;;;;;;;0.45;0.38;;;;;;;2.72;73.31;101077.16;10541714;28;20071;-77
2022/04/01 12:48:52;;;;;;;0.88;0.77;;;;;;;2.68;74.25;101081.19;10520201;28;20090;-77
2022/04/01 12:54:02;;;;;;;1.10;0.85;;;;;;;2.95;71.20;101076.88;10535388;28;20090;-77
2022/04/01 12:59:09;;;;;;;0.88;0.82;;;;;;;3.53;70.04;101072.56;10518472;28;20044;-77
2022/04/01 13:04:18;;;;;;;0.85;0.73;;;;;;;3.75;69.46;101067.88;10517908;28;20067;-77
2022/04/01 13:09:20;;;;;;;1.98;1.48;;;;;;;3.34;68.78;101068.94;10535903;28;20073;-77
2022/04/01 13:14:25;;;;;;;3.53;1.85;;;;;;;2.97;69.66;101066.78;10517927;28;20057;-76
2022/04/01 13:19:30;;;;;;;2.72;1.38;;;;;;;2.93;70.51;101073.34;10537028;28;20135;-78
2022/04/01 13:24:38;;;;;;;2.10;1.23;;;;;;;2.84;70.77;101082.97;10536697;28;20078;-77
2022/04/01 13:29:41;;;;;;;3.38;1.65;;;;;;;2.24;74.52;101077.66;10518595;28;20048;-77
2022/04/01 13:34:42;;;;;;;1.45;1.00;;;;;;;2.01;76.41;101094.88;10535858;28;20097;-77
2022/04/01 13:39:48;;;;;;;1.02;0.50;;;;;;;2.35;76.61;101083.41;10535254;28;20072;-77
2022/04/01 13:44:50;;;;;;;1.73;1.33;;;;;;;2.51;75.25;101086.13;10534969;28;20550;-77
2022/04/01 13:49:53;;;;;;;1.95;1.15;;;;;;;2.85;75.00;101093.28;10536759;28;20093;-77
2022/04/01 13:54:54;;;;;;;1.13;0.93;;;;;;;3.27;74.02;101082.09;10518115;28;20064;-77
2022/04/01 13:59:59;;;;;;;2.40;1.50;;;;;;;3.11;73.65;101078.66;10517285;28;20052;-77
2022/04/01 14:05:01;;;;;;;1.25;0.85;;;;;;;3.20;72.66;101087.63;10535458;28;20094;-77
2022/04/01 14:10:03;;;;;;;0.75;0.70;;;;;;;3.31;70.48;101086.59;10544842;28;20082;-76
2022/04/01 14:15:06;;;;;;;4.38;1.75;;;;;;;2.96;72.29;101091.38;10516775;28;20097;-75
2022/04/01 14:20:08;;;;;;;0.60;0.60;;;;;;;3.41;72.51;101088.88;10535775;28;20083;-76
2022/04/01 14:25:09;;;;;;;0.40;0.40;;;;;;;3.40;70.35;101089.66;10534771;28;20097;-77
2022/04/01 14:30:22;;;;;;;2.15;0.75;;;;;;;3.61;71.41;101094.25;10516439;28;20461;-77
2022/04/01 14:35:24;;;;;;;0.47;0.45;;;;;;;3.27;70.79;101110.09;10535265;28;20065;-76
2022/04/01 14:40:25;;;;;;;1.20;0.52;;;;;;;3.57;70.97;101097.41;10515882;28;20063;-76
2022/04/01 14:45:27;;;;;;;6.65;0.65;;;;;;;3.20;71.41;101108.00;10516843;28;20044;-76
2022/04/01 14:50:29;;;;;;;1.15;1.02;;;;;;;3.05;72.24;101101.22;10516608;28;20048;-78
2022/04/01 14:55:31;;;;;;;1.35;0.55;;;;;;;2.95;73.15;101104.88;10542083;28;20040;-78
2022/04/01 15:00:35;;;;;;;0.95;0.68;;;;;;;2.84;73.05;101116.06;10523774;28;20481;-78
2022/04/01 15:05:36;;;;;;;2.97;1.00;;;;;;;2.78;73.22;101110.59;10524040;28;20036;-78
2022/04/01 15:10:38;;;;;;;1.33;0.63;;;;;;;2.85;71.91;101117.81;10524072;28;20076;-78
2022/04/01 15:15:39;;;;;;;2.33;0.95;;;;;;;2.99;71.77;101116.13;10524039;28;20541;-77
2022/04/01 15:20:41;;;;;;;6.25;1.35;;;;;;;2.91;71.87;101127.50;10540933;28;20126;-82
2022/04/01 15:25:43;;;;;;;1.80;0.50;;;;;;;2.93;71.53;101133.56;10520381;28;20051;-83
2022/04/01 15:30:45;;;;;;;0.98;0.73;;;;;;;3.02;70.44;101129.00;10538112;28;20079;-82
2022/04/01 15:35:50;;;;;;;0.95;0.70;;;;;;;3.14;69.55;101126.31;10538388;28;20458;-84
2022/04/01 15:40:58;;;;;;;0.57;0.50;;;;;;;3.08;68.11;101120.88;10523822;28;20102;-82
2022/04/01 15:46:07;;;;;;;1.27;0.98;;;;;;;3.47;67.96;101132.53;10512489;28;20419;-82
2022/04/01 15:51:09;;;;;;;0.70;0.60;;;;;;;3.31;66.96;101150.28;10537345;28;20135;-83
2022/04/01 15:56:12;;;;;;;1.27;0.55;;;;;;;3.26;66.47;101146.53;10537665;28;20503;-81
2022/04/01 16:01:24;;;;;;;1.88;0.95;;;;;;;3.24;67.22;101158.34;10518988;28;20055;-83
2022/04/01 16:06:30;;;;;;;1.13;0.63;;;;;;;3.09;68.39;101163.38;10528514;28;20284;-82
2022/04/01 16:11:35;;;;;;;0.70;0.70;;;;;;;3.25;67.37;101167.69;10536667;28;20066;-82
2022/04/01 16:16:37;;;;;;;1.65;0.80;;;;;;;3.26;68.21;101183.09;10537174;28;20118;-83
2022/04/01 16:21:38;;;;;;;0.47;0.43;;;;;;;3.17;67.50;101182.53;10536565;28;20047;-83
2022/04/01 16:26:40;;;;;;;2.72;0.85;;;;;;;3.21;66.52;101188.69;10518381;28;20078;-82
2022/04/01 16:31:42;;;;;;;1.75;0.73;;;;;;;3.10;66.20;101188.91;10535905;28;20129;-81
2022/04/01 16:36:44;;;;;;;0.88;0.50;;;;;;;3.16;66.21;101199.47;10535692;28;20127;-82
2022/04/01 16:41:45;;;;;;;0.05;0.00;;;;;;;3.21;65.36;101198.88;10517512;28;20136;-82
2022/04/01 16:46:48;;;;;;;0.55;0.40;;;;;;;3.28;65.58;101212.06;10516963;28;20487;-83
2022/04/01 16:51:50;;;;;;;2.25;0.57;;;;;;;3.08;66.40;101217.59;10516953;28;20138;-82
2022/04/01 16:56:52;;;;;;;0.00;0.00;;;;;;;3.28;65.88;101216.28;10517378;28;20051;-83
2022/04/01 17:01:53;;;;;;;2.85;1.10;;;;;;;3.11;65.32;101215.25;10534642;28;20123;-82
2022/04/01 17:12:38;;;;;;;1.17;0.75;;;;;;;3.40;64.42;101222.09;10492535;28;20127;-82
2022/04/01 17:17:40;;;;;;;0.20;0.15;;;;;;;3.40;64.23;101237.38;10493923;28;20044;-82
2022/04/01 17:22:42;;;;;;;3.75;0.70;;;;;;;3.41;63.76;101239.16;10534331;28;20052;-82
2022/04/01 17:27:45;;;;;;;0.65;0.57;;;;;;;3.23;62.86;101236.38;10534108;28;20495;-81
2022/04/01 17:32:53;;;;;;;0.17;0.17;;;;;;;3.35;62.82;101241.34;10533480;28;20044;-82
2022/04/01 17:37:55;;;;;;;0.57;0.30;;;;;;;3.32;62.29;101241.13;10534535;28;20396;-81
2022/04/01 17:42:59;;;;;;;0.03;0.03;;;;;;;3.46;63.17;101253.03;10533705;28;20047;-82
2022/04/01 17:48:01;;;;;;;2.33;0.65;;;;;;;3.47;62.99;101259.91;10516253;28;20068;-82
2022/04/01 17:53:04;;;;;;;2.30;1.45;;;;;;;2.98;65.38;101264.53;10533202;28;20075;-82
2022/04/01 17:58:11;;;;;;;0.00;0.00;;;;;;;3.39;65.60;101275.50;10533521;28;20063;-83
2022/04/01 18:03:13;;;;;;;1.65;0.68;;;;;;;3.02;66.93;101286.84;10533084;28;20079;-82
2022/04/01 18:08:19;;;;;;;0.70;0.30;;;;;;;3.03;67.13;101292.81;10532539;28;20064;-82
2022/04/01 18:13:22;;;;;;;0.17;0.17;;;;;;;3.17;67.55;101294.56;10491210;28;20052;-82
2022/04/01 18:18:23;;;;;;;0.10;0.10;;;;;;;2.73;69.47;101310.44;10491490;28;20071;-82
2022/04/01 18:23:25;;;;;;;0.47;0.47;;;;;;;2.76;70.54;101310.63;10494852;28;20072;-81
2022/04/01 18:28:35;;;;;;;0.73;0.28;;;;;;;2.67;70.95;101313.47;10536202;28;20033;-83
2022/04/01 18:33:46;;;;;;;0.00;0.00;;;;;;;2.73;71.09;101315.53;10539219;28;20040;-82
2022/04/01 18:38:49;;;;;;;0.00;0.00;;;;;;;2.70;70.81;101326.41;10537288;28;20043;-82
2022/04/01 18:43:53;;;;;;;0.00;0.00;;;;;;;2.73;70.33;101333.34;10533754;28;20327;-83
2022/04/01 18:48:55;;;;;;;0.00;0.00;;;;;;;2.88;70.21;101338.53;10529663;28;20028;-83
2022/04/01 18:53:57;;;;;;;0.45;0.45;;;;;;;2.73;69.85;101348.63;10535056;28;20068;-82
2022/04/01 18:58:59;;;;;;;0.32;0.32;;;;;;;2.89;69.43;101353.03;10532860;28;20127;-81
2022/04/01 19:04:07;;;;;;;0.00;0.00;;;;;;;2.95;68.68;101358.50;10534126;28;20068;-82
2022/04/01 19:09:17;;;;;;;0.55;0.40;;;;;;;2.94;69.72;101374.59;10534288;28;21009;-82
2022/04/01 19:14:18;;;;;;;0.08;0.08;;;;;;;2.74;70.63;101373.28;10533419;28;20048;-81
2022/04/01 19:19:24;;;;;;;0.00;0.00;;;;;;;2.74;70.96;101374.16;10531077;28;20604;-82
2022/04/01 19:24:34;;;;;;;0.00;0.00;;;;;;;2.97;70.19;101378.22;10530018;28;20188;-82
2022/04/01 19:29:36;;;;;;;0.00;0.00;;;;;;;3.08;70.58;101383.97;10531540;28;20041;-82
2022/04/01 19:34:38;;;;;;;0.00;0.00;;;;;;;2.90;70.40;101392.97;10536189;28;20127;-82
2022/04/01 19:39:41;;;;;;;0.00;0.00;;;;;;;3.00;67.96;101390.25;10528681;28;20122;-81
2022/04/01 19:44:45;;;;;;;0.30;0.30;;;;;;;3.02;67.06;101388.66;10535125;28;20663;-81
2022/04/01 19:49:47;;;;;;;0.00;0.00;;;;;;;3.20;65.79;101391.53;10535206;28;20492;-82
2022/04/01 19:54:48;;;;;;;0.00;0.00;;;;;;;3.35;65.84;101400.91;10528596;28;20050;-82
2022/04/01 19:59:50;;;;;;;0.68;0.47;;;;;;;3.20;63.24;101406.81;10531888;28;20382;-82
2022/04/01 20:04:51;;;;;;;0.40;0.40;;;;;;;3.27;65.07;101413.16;10512616;28;20397;-82
2022/04/01 20:09:53;;;;;;;0.00;0.00;;;;;;;3.23;63.97;101401.88;10534999;28;20097;-82
2022/04/01 20:14:55;;;;;;;3.40;0.65;;;;;;;3.40;62.43;101405.50;10529968;28;20166;-82
2022/04/01 20:19:56;;;;;;;0.17;0.17;;;;;;;3.45;60.47;101404.16;10530305;28;20119;-82
2022/04/01 20:24:58;;;;;;;1.08;0.60;;;;;;;3.39;59.47;101411.38;10534114;28;20070;-81
2022/04/01 20:30:01;;;;;;;0.63;0.45;;;;;;;3.54;59.59;101413.16;10515430;28;20491;-83
2022/04/01 20:35:03;;;;;;;0.30;0.30;;;;;;;3.51;59.10;101408.72;10533903;28;20588;-83
2022/04/01 20:40:05;;;;;;;0.80;0.73;;;;;;;3.58;58.64;101417.63;10563255;27;20487;-82
2022/04/01 20:45:08;;;;;;;0.82;0.50;;;;;;;3.51;59.52;101415.50;10535334;28;20048;-82
2022/04/01 20:50:11;;;;;;;0.98;0.65;;;;;;;3.60;57.49;101413.53;10550828;28;20419;-82
2022/04/01 20:55:13;;;;;;;0.75;0.22;;;;;;;3.70;57.52;101426.03;10533540;28;20086;-83
2022/04/01 21:00:17;;;;;;;0.52;0.30;;;;;;;3.45;57.81;101424.53;10535290;28;20052;-81
2022/04/01 21:05:18;;;;;;;2.10;1.65;;;;;;;3.56;56.87;101421.75;10534290;28;20098;-82
2022/04/01 21:10:20;;;;;;;0.63;0.45;;;;;;;3.66;57.13;101426.66;10534555;28;20062;-81
2022/04/01 21:15:21;;;;;;;0.10;0.10;;;;;;;3.51;56.63;101433.31;10534846;28;20586;-81
2022/04/01 21:20:23;;;;;;;1.00;0.90;;;;;;;3.49;56.08;101435.78;10534825;28;20043;-83
2022/04/01 21:27:20;;;;;;;0.30;0.28;;;;;;;3.53;56.52;101442.81;10533547;28;20078;-82
2022/04/01 21:30:46;;;;;;;4.22;0.93;;;;;;;3.47;55.58;101440.75;10532354;28;20577;-82
2022/04/01 21:35:48;;;;;;;1.33;0.82;;;;;;;3.37;56.59;101445.19;10515960;28;20058;-84
2022/04/01 21:40:50;;;;;;;0.00;0.00;;;;;;;3.50;56.65;101445.16;10526895;28;20109;-83
2022/04/01 21:45:51;;;;;;;0.08;0.08;;;;;;;3.38;56.96;101442.75;10533127;28;20143;-82
2022/04/01 21:50:53;;;;;;;0.10;0.10;;;;;;;3.31;57.17;101456.75;10532335;28;20403;-80
2022/04/01 21:55:58;;;;;;;0.10;0.10;;;;;;;3.39;57.19;101459.78;10530784;28;20044;-80
2022/04/01 22:00:59;;;;;;;0.30;0.30;;;;;;;3.30;58.01;101443.91;10532597;28;20178;-80
2022/04/01 22:06:01;;;;;;;0.22;0.22;;;;;;;3.32;58.84;101452.53;10542203;28;20495;-80
2022/04/01 22:11:03;;;;;;;0.10;0.10;;;;;;;3.27;59.93;101448.81;10541799;28;20227;-81
2022/04/01 22:16:07;;;;;;;0.05;0.05;;;;;;;3.15;62.78;101459.97;10541739;28;20064;-80
2022/04/01 22:21:10;;;;;;;0.00;0.00;;;;;;;3.15;64.14;101465.06;10541493;28;20558;-83
2022/04/01 22:26:13;;;;;;;0.00;0.00;;;;;;;2.98;63.75;101465.63;10541552;28;20052;-82
2022/04/01 22:31:18;;;;;;;0.52;0.52;;;;;;;3.01;64.02;101468.38;10522549;28;20043;-81
2022/04/01 22:36:21;;;;;;;0.20;0.20;;;;;;;2.94;63.11;101473.84;10540936;28;20047;-82
2022/04/01 22:41:23;;;;;;;0.80;0.65;;;;;;;2.88;63.00;101473.41;10522649;28;20059;-82
2022/04/01 22:46:25;;;;;;;0.00;0.00;;;;;;;2.90;63.12;101474.41;10522465;28;20572;-82
2022/04/01 22:56:47;;;;;;;2.67;0.97;;;;;;;2.47;64.33;101485.13;10541026;28;20072;-79
2022/04/01 23:01:49;;;;;;;0.00;0.00;;;;;;;2.72;63.37;101477.47;10539327;28;20294;-82
2022/04/01 23:06:50;;;;;;;0.00;0.00;;;;;;;2.79;62.56;101478.78;10521403;28;20041;-82
2022/04/01 23:11:52;;;;;;;1.50;1.38;;;;;;;2.71;61.99;101475.75;10554626;28;20048;-80
2022/04/01 23:16:53;;;;;;;0.20;0.20;;;;;;;2.85;61.28;101479.19;10538849;28;20503;-81
2022/04/01 23:21:56;;;;;;;0.50;0.50;;;;;;;2.85;59.90;101482.63;10538936;28;20482;-81
2022/04/01 23:26:57;;;;;;;0.90;0.57;;;;;;;2.90;58.75;101489.69;10538553;28;20123;-81
2022/04/01 23:31:59;;;;;;;2.08;0.63;;;;;;;3.03;55.38;101478.66;10520429;28;20491;-81
2022/04/01 23:37:01;;;;;;;0.73;0.32;;;;;;;3.07;54.57;101486.59;10520599;28;20173;-81
2022/04/01 23:42:07;;;;;;;6.75;0.95;;;;;;;3.07;53.81;101485.69;10520578;28;20083;-83
2022/04/01 23:47:09;;;;;;;0.10;0.10;;;;;;;3.29;49.53;101477.81;10520069;28;20044;-82
2022/04/01 23:52:11;;;;;;;2.22;0.80;;;;;;;3.15;49.79;101485.44;10537533;28;20190;-81
2022/04/01 23:57:12;;;;;;;0.00;0.00;;;;;;;3.24;48.90;101484.28;10519713;28;20105;-82
